sensor_id;sensor_type;location;lat;lon;timestamp;pressure;altitude;pressure_sealevel;temperature;humidity
35989;BME280;22064;42.672;23.282;2022-11-20T00:01:47;93899.34;;;18.12;100.00
35989;BME280;22064;42.672;23.282;2022-11-20T00:04:13;93826.50;;;17.99;100.00
35989;BME280;22064;42.672;23.282;2022-11-20T00:06:39;93884.56;;;17.94;100.00
35989;BME280;22064;42.672;23.282;2022-11-20T00:09:04;93903.81;;;17.94;100.00
35989;BME280;22064;42.672;23.282;2022-11-20T00:11:31;93896.81;;;17.90;100.00
35989;BME280;22064;42.672;23.282;2022-11-20T00:13:59;93861.97;;;17.93;100.00
35989;BME280;22064;42.672;23.282;2022-11-20T00:16:29;93898.22;;;17.96;100.00
35989;BME280;22064;42.672;23.282;2022-11-20T00:18:54;93899.94;;;18.09;100.00
35989;BME280;22064;42.672;23.282;2022-11-20T00:21:25;93894.84;;;18.04;100.00
35989;BME280;22064;42.672;23.282;2022-11-20T00:23:53;93857.16;;;18.04;100.00
35989;BME280;22064;42.672;23.282;2022-11-20T00:26:21;93861.53;;;18.08;100.00
35989;BME280;22064;42.672;23.282;2022-11-20T00:28:52;93887.09;;;18.08;100.00
35989;BME280;22064;42.672;23.282;2022-11-20T00:31:18;93874.69;;;17.99;100.00
35989;BME280;22064;42.672;23.282;2022-11-20T00:33:45;93910.28;;;17.97;100.00
35989;BME280;22064;42.672;23.282;2022-11-20T00:36:19;93873.28;;;18.02;100.00
35989;BME280;22064;42.672;23.282;2022-11-20T00:38:45;93871.75;;;18.01;100.00
35989;BME280;22064;42.672;23.282;2022-11-20T00:41:13;93886.47;;;18.02;100.00
35989;BME280;22064;42.672;23.282;2022-11-20T00:43:39;93910.78;;;17.99;100.00
35989;BME280;22064;42.672;23.282;2022-11-20T00:46:07;93882.72;;;18.03;100.00
35989;BME280;22064;42.672;23.282;2022-11-20T00:48:34;93912.94;;;17.97;100.00
35989;BME280;22064;42.672;23.282;2022-11-20T00:50:59;93845.06;;;17.94;100.00
35989;BME280;22064;42.672;23.282;2022-11-20T00:53:25;93895.91;;;18.03;100.00
35989;BME280;22064;42.672;23.282;2022-11-20T00:55:56;93883.81;;;18.02;100.00
35989;BME280;22064;42.672;23.282;2022-11-20T00:58:23;93896.06;;;17.98;100.00
35989;BME280;22064;42.672;23.282;2022-11-20T01:00:48;93904.59;;;18.12;100.00
35989;BME280;22064;42.672;23.282;2022-11-20T01:03:16;93899.78;;;18.06;100.00
35989;BME280;22064;42.672;23.282;2022-11-20T01:05:41;93902.75;;;18.04;100.00
35989;BME280;22064;42.672;23.282;2022-11-20T01:08:07;93899.44;;;17.90;100.00
35989;BME280;22064;42.672;23.282;2022-11-20T01:10:33;93909.84;;;17.95;100.00
35989;BME280;22064;42.672;23.282;2022-11-20T01:12:58;93887.81;;;17.91;100.00
35989;BME280;22064;42.672;23.282;2022-11-20T01:15:42;93901.91;;;17.86;100.00
35989;BME280;22064;42.672;23.282;2022-11-20T01:18:08;93857.13;;;17.77;100.00
35989;BME280;22064;42.672;23.282;2022-11-20T01:20:37;93905.09;;;17.74;100.00
35989;BME280;22064;42.672;23.282;2022-11-20T01:23:03;93849.91;;;17.69;100.00
35989;BME280;22064;42.672;23.282;2022-11-20T01:25:29;93878.75;;;17.74;100.00
35989;BME280;22064;42.672;23.282;2022-11-20T01:27:55;93877.81;;;17.70;100.00
35989;BME280;22064;42.672;23.282;2022-11-20T01:30:20;93841.56;;;17.67;100.00
35989;BME280;22064;42.672;23.282;2022-11-20T01:32:46;93854.97;;;17.80;100.00
35989;BME280;22064;42.672;23.282;2022-11-20T01:35:11;93869.06;;;17.84;100.00
35989;BME280;22064;42.672;23.282;2022-11-20T01:37:37;93821.66;;;17.84;100.00
35989;BME280;22064;42.672;23.282;2022-11-20T01:40:03;93856.66;;;17.84;100.00
35989;BME280;22064;42.672;23.282;2022-11-20T01:42:28;93863.50;;;17.85;100.00
35989;BME280;22064;42.672;23.282;2022-11-20T01:48:13;93851.56;;;17.88;100.00
35989;BME280;22064;42.672;23.282;2022-11-20T01:50:40;93876.66;;;17.85;100.00
35989;BME280;22064;42.672;23.282;2022-11-20T01:53:13;93844.13;;;17.90;100.00
35989;BME280;22064;42.672;23.282;2022-11-20T01:55:44;93872.34;;;17.89;100.00
35989;BME280;22064;42.672;23.282;2022-11-20T01:58:12;93880.69;;;17.83;100.00
35989;BME280;22064;42.672;23.282;2022-11-20T02:00:38;93851.56;;;17.79;100.00
35989;BME280;22064;42.672;23.282;2022-11-20T02:03:07;93892.31;;;17.90;100.00
35989;BME280;22064;42.672;23.282;2022-11-20T02:05:38;93877.56;;;17.81;100.00
35989;BME280;22064;42.672;23.282;2022-11-20T02:08:06;93853.38;;;17.78;100.00
35989;BME280;22064;42.672;23.282;2022-11-20T02:10:32;93898.97;;;17.88;100.00
35989;BME280;22064;42.672;23.282;2022-11-20T02:12:58;93880.72;;;17.91;100.00
35989;BME280;22064;42.672;23.282;2022-11-20T02:15:42;93863.19;;;17.87;100.00
35989;BME280;22064;42.672;23.282;2022-11-20T02:18:09;93914.44;;;17.81;100.00
35989;BME280;22064;42.672;23.282;2022-11-20T02:20:35;93883.09;;;17.70;100.00
35989;BME280;22064;42.672;23.282;2022-11-20T02:25:50;93885.25;;;17.68;100.00
35989;BME280;22064;42.672;23.282;2022-11-20T02:28:17;93881.03;;;17.59;100.00
35989;BME280;22064;42.672;23.282;2022-11-20T02:30:43;93846.50;;;17.60;100.00
35989;BME280;22064;42.672;23.282;2022-11-20T02:33:08;93894.50;;;17.66;100.00
35989;BME280;22064;42.672;23.282;2022-11-20T02:38:01;93879.59;;;17.52;100.00
35989;BME280;22064;42.672;23.282;2022-11-20T02:40:28;93891.69;;;17.53;100.00
35989;BME280;22064;42.672;23.282;2022-11-20T02:42:55;93887.34;;;17.49;100.00
35989;BME280;22064;42.672;23.282;2022-11-20T02:45:21;93894.50;;;17.57;100.00
35989;BME280;22064;42.672;23.282;2022-11-20T02:47:46;93897.59;;;17.59;100.00
35989;BME280;22064;42.672;23.282;2022-11-20T02:50:12;93868.13;;;17.48;100.00
35989;BME280;22064;42.672;23.282;2022-11-20T02:52:37;93926.00;;;17.40;100.00
35989;BME280;22064;42.672;23.282;2022-11-20T02:55:03;93885.91;;;17.43;100.00
35989;BME280;22064;42.672;23.282;2022-11-20T02:57:29;93906.47;;;17.41;100.00
35989;BME280;22064;42.672;23.282;2022-11-20T02:59:54;93915.47;;;17.40;100.00
35989;BME280;22064;42.672;23.282;2022-11-20T03:02:20;93904.59;;;17.33;100.00
35989;BME280;22064;42.672;23.282;2022-11-20T03:04:45;93888.28;;;17.22;100.00
35989;BME280;22064;42.672;23.282;2022-11-20T03:07:11;93902.28;;;17.08;100.00
35989;BME280;22064;42.672;23.282;2022-11-20T03:09:39;93891.34;;;17.15;100.00
35989;BME280;22064;42.672;23.282;2022-11-20T03:12:05;93918.22;;;17.12;100.00
35989;BME280;22064;42.672;23.282;2022-11-20T03:14:31;93891.75;;;17.08;100.00
35989;BME280;22064;42.672;23.282;2022-11-20T03:16:56;93899.94;;;17.07;100.00
35989;BME280;22064;42.672;23.282;2022-11-20T03:19:22;93889.66;;;17.19;100.00
35989;BME280;22064;42.672;23.282;2022-11-20T03:21:48;93921.81;;;17.16;100.00
35989;BME280;22064;42.672;23.282;2022-11-20T03:24:14;93908.53;;;17.21;100.00
35989;BME280;22064;42.672;23.282;2022-11-20T03:26:40;93915.44;;;17.08;100.00
35989;BME280;22064;42.672;23.282;2022-11-20T03:29:05;93929.09;;;17.19;100.00
35989;BME280;22064;42.672;23.282;2022-11-20T03:31:34;93908.84;;;17.20;100.00
35989;BME280;22064;42.672;23.282;2022-11-20T03:34:00;93925.34;;;17.12;100.00
35989;BME280;22064;42.672;23.282;2022-11-20T03:36:27;93908.91;;;17.06;100.00
35989;BME280;22064;42.672;23.282;2022-11-20T03:38:54;93919.50;;;17.15;100.00
35989;BME280;22064;42.672;23.282;2022-11-20T03:41:23;93934.69;;;17.18;100.00
35989;BME280;22064;42.672;23.282;2022-11-20T03:46:19;93915.38;;;17.00;100.00
35989;BME280;22064;42.672;23.282;2022-11-20T03:48:44;93932.81;;;17.18;100.00
35989;BME280;22064;42.672;23.282;2022-11-20T03:51:21;93926.66;;;17.23;100.00
35989;BME280;22064;42.672;23.282;2022-11-20T03:53:48;93941.03;;;17.17;100.00
35989;BME280;22064;42.672;23.282;2022-11-20T03:56:16;93942.84;;;17.16;100.00
35989;BME280;22064;42.672;23.282;2022-11-20T03:58:42;93933.91;;;17.17;100.00
35989;BME280;22064;42.672;23.282;2022-11-20T04:01:15;93928.66;;;17.17;100.00
35989;BME280;22064;42.672;23.282;2022-11-20T04:03:42;93936.66;;;17.12;100.00
35989;BME280;22064;42.672;23.282;2022-11-20T04:06:16;93947.16;;;17.12;100.00
35989;BME280;22064;42.672;23.282;2022-11-20T04:08:43;93956.00;;;17.16;100.00
35989;BME280;22064;42.672;23.282;2022-11-20T04:11:20;93947.66;;;17.14;100.00
35989;BME280;22064;42.672;23.282;2022-11-20T04:13:48;93941.78;;;17.17;100.00
35989;BME280;22064;42.672;23.282;2022-11-20T04:16:14;93956.16;;;17.11;100.00
35989;BME280;22064;42.672;23.282;2022-11-20T04:18:40;93926.78;;;16.95;100.00
35989;BME280;22064;42.672;23.282;2022-11-20T04:21:06;93919.19;;;16.94;100.00
35989;BME280;22064;42.672;23.282;2022-11-20T04:23:32;93922.13;;;16.92;100.00
35989;BME280;22064;42.672;23.282;2022-11-20T04:26:09;93950.63;;;16.99;100.00
35989;BME280;22064;42.672;23.282;2022-11-20T04:28:35;93951.06;;;16.92;100.00
35989;BME280;22064;42.672;23.282;2022-11-20T04:31:06;93938.31;;;16.72;100.00
35989;BME280;22064;42.672;23.282;2022-11-20T04:33:32;93973.81;;;16.97;100.00
35989;BME280;22064;42.672;23.282;2022-11-20T04:36:23;93962.03;;;16.94;100.00
35989;BME280;22064;42.672;23.282;2022-11-20T04:38:58;93948.84;;;16.85;100.00
35989;BME280;22064;42.672;23.282;2022-11-20T04:41:27;93937.94;;;16.78;100.00
35989;BME280;22064;42.672;23.282;2022-11-20T04:43:55;93974.47;;;16.80;100.00
35989;BME280;22064;42.672;23.282;2022-11-20T04:46:41;93919.06;;;16.76;100.00
35989;BME280;22064;42.672;23.282;2022-11-20T04:49:07;93945.38;;;16.76;100.00
35989;BME280;22064;42.672;23.282;2022-11-20T04:51:33;93935.50;;;16.82;100.00
35989;BME280;22064;42.672;23.282;2022-11-20T04:53:59;93957.59;;;16.81;100.00
35989;BME280;22064;42.672;23.282;2022-11-20T04:56:25;93911.50;;;16.61;100.00
35989;BME280;22064;42.672;23.282;2022-11-20T04:58:50;93912.81;;;16.72;100.00
35989;BME280;22064;42.672;23.282;2022-11-20T05:01:19;93911.44;;;16.75;100.00
35989;BME280;22064;42.672;23.282;2022-11-20T05:03:45;93925.78;;;16.69;100.00
35989;BME280;22064;42.672;23.282;2022-11-20T05:06:13;93918.78;;;16.64;100.00
35989;BME280;22064;42.672;23.282;2022-11-20T05:08:38;93905.16;;;16.62;100.00
35989;BME280;22064;42.672;23.282;2022-11-20T05:11:13;93900.50;;;16.59;100.00
35989;BME280;22064;42.672;23.282;2022-11-20T05:13:39;93899.41;;;16.60;100.00
35989;BME280;22064;42.672;23.282;2022-11-20T05:16:14;93902.03;;;16.60;100.00
35989;BME280;22064;42.672;23.282;2022-11-20T05:18:40;93909.94;;;16.60;100.00
35989;BME280;22064;42.672;23.282;2022-11-20T05:21:06;93901.00;;;16.61;100.00
35989;BME280;22064;42.672;23.282;2022-11-20T05:23:33;93881.81;;;16.60;100.00
35989;BME280;22064;42.672;23.282;2022-11-20T05:25:59;93883.06;;;16.63;100.00
35989;BME280;22064;42.672;23.282;2022-11-20T05:28:27;93891.25;;;16.61;100.00
35989;BME280;22064;42.672;23.282;2022-11-20T05:30:52;93880.56;;;16.58;100.00
35989;BME280;22064;42.672;23.282;2022-11-20T05:33:18;93889.28;;;16.67;100.00
35989;BME280;22064;42.672;23.282;2022-11-20T05:35:44;93914.31;;;16.65;100.00
35989;BME280;22064;42.672;23.282;2022-11-20T05:38:10;93901.34;;;16.68;100.00
35989;BME280;22064;42.672;23.282;2022-11-20T05:40:35;93924.59;;;16.75;100.00
35989;BME280;22064;42.672;23.282;2022-11-20T05:43:01;93916.91;;;16.78;100.00
35989;BME280;22064;42.672;23.282;2022-11-20T05:45:27;93902.78;;;16.74;100.00
35989;BME280;22064;42.672;23.282;2022-11-20T05:47:52;93921.19;;;16.74;100.00
35989;BME280;22064;42.672;23.282;2022-11-20T05:50:18;93922.34;;;16.82;100.00
35989;BME280;22064;42.672;23.282;2022-11-20T05:52:44;93905.41;;;16.74;100.00
35989;BME280;22064;42.672;23.282;2022-11-20T05:55:09;93903.16;;;16.81;100.00
35989;BME280;22064;42.672;23.282;2022-11-20T05:57:35;93942.91;;;16.80;100.00
35989;BME280;22064;42.672;23.282;2022-11-20T06:00:01;93896.25;;;16.72;100.00
35989;BME280;22064;42.672;23.282;2022-11-20T06:02:29;93944.59;;;16.98;100.00
35989;BME280;22064;42.672;23.282;2022-11-20T06:04:55;93961.50;;;17.06;100.00
35989;BME280;22064;42.672;23.282;2022-11-20T06:07:20;93942.34;;;17.05;100.00
35989;BME280;22064;42.672;23.282;2022-11-20T06:09:46;93956.44;;;16.73;100.00
35989;BME280;22064;42.672;23.282;2022-11-20T06:12:11;93948.78;;;16.77;100.00
35989;BME280;22064;42.672;23.282;2022-11-20T06:14:37;93952.13;;;16.91;100.00
35989;BME280;22064;42.672;23.282;2022-11-20T06:17:02;93955.31;;;16.52;100.00
35989;BME280;22064;42.672;23.282;2022-11-20T06:19:27;93931.88;;;16.42;100.00
35989;BME280;22064;42.672;23.282;2022-11-20T06:21:53;93980.19;;;16.68;100.00
35989;BME280;22064;42.672;23.282;2022-11-20T06:24:18;93963.63;;;16.95;100.00
35989;BME280;22064;42.672;23.282;2022-11-20T06:26:44;93965.50;;;16.81;100.00
35989;BME280;22064;42.672;23.282;2022-11-20T06:29:09;93994.84;;;16.60;100.00
35989;BME280;22064;42.672;23.282;2022-11-20T06:31:35;93971.41;;;16.73;100.00
35989;BME280;22064;42.672;23.282;2022-11-20T06:34:06;93964.41;;;16.82;100.00
35989;BME280;22064;42.672;23.282;2022-11-20T06:36:32;93974.81;;;17.01;100.00
35989;BME280;22064;42.672;23.282;2022-11-20T06:38:58;93957.09;;;17.15;100.00
35989;BME280;22064;42.672;23.282;2022-11-20T06:41:24;93970.66;;;17.31;100.00
35989;BME280;22064;42.672;23.282;2022-11-20T06:43:50;93964.44;;;17.49;100.00
35989;BME280;22064;42.672;23.282;2022-11-20T06:46:18;93981.47;;;17.52;100.00
35989;BME280;22064;42.672;23.282;2022-11-20T06:48:43;93973.63;;;17.61;100.00
35989;BME280;22064;42.672;23.282;2022-11-20T06:51:09;93969.56;;;17.77;100.00
35989;BME280;22064;42.672;23.282;2022-11-20T06:53:35;93972.25;;;17.86;100.00
35989;BME280;22064;42.672;23.282;2022-11-20T06:56:01;93974.38;;;17.84;100.00
35989;BME280;22064;42.672;23.282;2022-11-20T06:58:28;93971.34;;;17.99;100.00
35989;BME280;22064;42.672;23.282;2022-11-20T07:01:00;93980.88;;;18.17;100.00
35989;BME280;22064;42.672;23.282;2022-11-20T07:03:26;93983.56;;;18.35;100.00
35989;BME280;22064;42.672;23.282;2022-11-20T07:05:54;93989.94;;;18.42;100.00
35989;BME280;22064;42.672;23.282;2022-11-20T07:08:21;93993.06;;;18.44;100.00
35989;BME280;22064;42.672;23.282;2022-11-20T07:10:46;93985.88;;;18.28;100.00
35989;BME280;22064;42.672;23.282;2022-11-20T07:13:12;93953.97;;;17.89;100.00
35989;BME280;22064;42.672;23.282;2022-11-20T07:15:37;93978.31;;;17.95;100.00
35989;BME280;22064;42.672;23.282;2022-11-20T07:18:03;93983.28;;;17.96;100.00
35989;BME280;22064;42.672;23.282;2022-11-20T07:20:28;93981.91;;;17.99;100.00
35989;BME280;22064;42.672;23.282;2022-11-20T07:22:55;93967.44;;;17.88;100.00
35989;BME280;22064;42.672;23.282;2022-11-20T07:25:21;93980.00;;;17.68;100.00
35989;BME280;22064;42.672;23.282;2022-11-20T07:27:47;93987.91;;;17.68;100.00
35989;BME280;22064;42.672;23.282;2022-11-20T07:30:14;93980.63;;;17.65;100.00
35989;BME280;22064;42.672;23.282;2022-11-20T07:32:39;93986.47;;;17.62;100.00
35989;BME280;22064;42.672;23.282;2022-11-20T07:35:05;93976.72;;;17.63;100.00
35989;BME280;22064;42.672;23.282;2022-11-20T07:37:34;93986.38;;;17.67;100.00
35989;BME280;22064;42.672;23.282;2022-11-20T07:39:59;93966.56;;;17.70;100.00
35989;BME280;22064;42.672;23.282;2022-11-20T07:42:25;93994.19;;;17.81;100.00
35989;BME280;22064;42.672;23.282;2022-11-20T07:44:50;93961.34;;;17.78;100.00
35989;BME280;22064;42.672;23.282;2022-11-20T07:47:16;93984.06;;;17.74;100.00
35989;BME280;22064;42.672;23.282;2022-11-20T07:49:41;93970.44;;;17.72;100.00
35989;BME280;22064;42.672;23.282;2022-11-20T07:52:07;93993.16;;;17.91;100.00
35989;BME280;22064;42.672;23.282;2022-11-20T07:54:32;93983.38;;;17.83;100.00
35989;BME280;22064;42.672;23.282;2022-11-20T07:56:58;94007.16;;;18.00;100.00
35989;BME280;22064;42.672;23.282;2022-11-20T07:59:23;94012.34;;;17.38;100.00
35989;BME280;22064;42.672;23.282;2022-11-20T08:01:49;94002.41;;;17.35;100.00
35989;BME280;22064;42.672;23.282;2022-11-20T08:04:15;94007.81;;;17.52;100.00
35989;BME280;22064;42.672;23.282;2022-11-20T08:06:41;94007.69;;;17.80;100.00
35989;BME280;22064;42.672;23.282;2022-11-20T08:09:07;94032.78;;;17.41;100.00
35989;BME280;22064;42.672;23.282;2022-11-20T08:11:32;94002.25;;;17.31;100.00
35989;BME280;22064;42.672;23.282;2022-11-20T08:14:16;93975.69;;;17.19;100.00
35989;BME280;22064;42.672;23.282;2022-11-20T08:16:46;93992.25;;;17.19;100.00
35989;BME280;22064;42.672;23.282;2022-11-20T08:19:13;94025.22;;;17.39;100.00
35989;BME280;22064;42.672;23.282;2022-11-20T08:21:39;94043.09;;;17.51;100.00
35989;BME280;22064;42.672;23.282;2022-11-20T08:24:06;93967.94;;;17.67;100.00
35989;BME280;22064;42.672;23.282;2022-11-20T08:26:32;94003.34;;;17.84;100.00
35989;BME280;22064;42.672;23.282;2022-11-20T08:28:58;94028.66;;;17.93;100.00
35989;BME280;22064;42.672;23.282;2022-11-20T08:31:26;94022.72;;;18.10;100.00
35989;BME280;22064;42.672;23.282;2022-11-20T08:33:52;93999.63;;;18.16;100.00
35989;BME280;22064;42.672;23.282;2022-11-20T08:36:18;94009.38;;;18.15;100.00
35989;BME280;22064;42.672;23.282;2022-11-20T08:39:02;94016.13;;;17.99;100.00
35989;BME280;22064;42.672;23.282;2022-11-20T08:41:29;94014.00;;;18.10;100.00
35989;BME280;22064;42.672;23.282;2022-11-20T08:44:01;94040.59;;;18.31;100.00
35989;BME280;22064;42.672;23.282;2022-11-20T08:46:32;94074.34;;;17.66;100.00
35989;BME280;22064;42.672;23.282;2022-11-20T08:48:59;94067.91;;;17.00;100.00
35989;BME280;22064;42.672;23.282;2022-11-20T08:51:24;94043.91;;;16.51;100.00
35989;BME280;22064;42.672;23.282;2022-11-20T08:53:50;94061.69;;;16.40;100.00
35989;BME280;22064;42.672;23.282;2022-11-20T08:56:16;94042.72;;;16.16;100.00
35989;BME280;22064;42.672;23.282;2022-11-20T08:58:42;94038.81;;;16.00;100.00
35989;BME280;22064;42.672;23.282;2022-11-20T09:01:08;94030.94;;;16.00;100.00
35989;BME280;22064;42.672;23.282;2022-11-20T09:03:33;94034.13;;;15.97;100.00
35989;BME280;22064;42.672;23.282;2022-11-20T09:06:00;94056.59;;;16.03;100.00
35989;BME280;22064;42.672;23.282;2022-11-20T09:08:27;94064.81;;;15.82;100.00
35989;BME280;22064;42.672;23.282;2022-11-20T09:10:54;94063.19;;;15.86;100.00
35989;BME280;22064;42.672;23.282;2022-11-20T09:13:21;94061.91;;;15.84;100.00
35989;BME280;22064;42.672;23.282;2022-11-20T09:15:47;94080.00;;;15.85;100.00
35989;BME280;22064;42.672;23.282;2022-11-20T09:18:17;94067.63;;;15.72;100.00
35989;BME280;22064;42.672;23.282;2022-11-20T09:20:42;94071.34;;;15.33;100.00
35989;BME280;22064;42.672;23.282;2022-11-20T09:23:08;94060.94;;;15.09;100.00
35989;BME280;22064;42.672;23.282;2022-11-20T09:25:33;94062.81;;;14.85;100.00
35989;BME280;22064;42.672;23.282;2022-11-20T09:27:59;94053.88;;;14.67;100.00
35989;BME280;22064;42.672;23.282;2022-11-20T09:30:26;94043.56;;;14.51;100.00
35989;BME280;22064;42.672;23.282;2022-11-20T09:32:52;94024.72;;;14.49;100.00
35989;BME280;22064;42.672;23.282;2022-11-20T09:35:17;94019.72;;;14.53;100.00
35989;BME280;22064;42.672;23.282;2022-11-20T09:37:43;94015.25;;;14.53;100.00
35989;BME280;22064;42.672;23.282;2022-11-20T09:46:06;93990.34;;;15.13;100.00
35989;BME280;22064;42.672;23.282;2022-11-20T09:56:42;93977.81;;;15.75;100.00
35989;BME280;22064;42.672;23.282;2022-11-20T10:01:59;93988.13;;;16.40;100.00
35989;BME280;22064;42.672;23.282;2022-11-20T10:04:29;93987.59;;;16.66;100.00
35989;BME280;22064;42.672;23.282;2022-11-20T10:09:51;93993.59;;;16.94;100.00
35989;BME280;22064;42.672;23.282;2022-11-20T10:12:20;93984.69;;;17.04;100.00
35989;BME280;22064;42.672;23.282;2022-11-20T10:20:43;93995.47;;;17.16;100.00
35989;BME280;22064;42.672;23.282;2022-11-20T10:23:23;93997.72;;;17.23;100.00
35989;BME280;22064;42.672;23.282;2022-11-20T10:31:25;94013.59;;;16.68;100.00
35989;BME280;22064;42.672;23.282;2022-11-20T10:33:53;93990.53;;;16.65;100.00
35989;BME280;22064;42.672;23.282;2022-11-20T10:36:34;93996.41;;;16.20;100.00
35989;BME280;22064;42.672;23.282;2022-11-20T10:39:38;94007.59;;;15.98;100.00
35989;BME280;22064;42.672;23.282;2022-11-20T10:42:13;93993.47;;;15.94;100.00
35989;BME280;22064;42.672;23.282;2022-11-20T10:44:47;94005.28;;;15.64;100.00
35989;BME280;22064;42.672;23.282;2022-11-20T10:47:28;93986.47;;;15.57;100.00
35989;BME280;22064;42.672;23.282;2022-11-20T10:49:57;93991.84;;;15.52;100.00
35989;BME280;22064;42.672;23.282;2022-11-20T10:52:47;94007.56;;;15.19;100.00
35989;BME280;22064;42.672;23.282;2022-11-20T10:55:33;94001.00;;;15.35;100.00
35989;BME280;22064;42.672;23.282;2022-11-20T10:58:10;93994.59;;;15.09;100.00
35989;BME280;22064;42.672;23.282;2022-11-20T11:00:38;94009.75;;;14.55;100.00
35989;BME280;22064;42.672;23.282;2022-11-20T11:03:26;94075.97;;;14.07;100.00
35989;BME280;22064;42.672;23.282;2022-11-20T11:08:43;94142.59;;;12.01;100.00
35989;BME280;22064;42.672;23.282;2022-11-20T11:11:21;94071.38;;;12.06;100.00
35989;BME280;22064;42.672;23.282;2022-11-20T11:13:48;94039.00;;;12.12;100.00
35989;BME280;22064;42.672;23.282;2022-11-20T11:16:23;94022.63;;;11.86;100.00
35989;BME280;22064;42.672;23.282;2022-11-20T11:18:49;94024.47;;;11.65;100.00
35989;BME280;22064;42.672;23.282;2022-11-20T11:21:21;94021.09;;;11.60;100.00
35989;BME280;22064;42.672;23.282;2022-11-20T11:23:57;94033.84;;;11.61;100.00
35989;BME280;22064;42.672;23.282;2022-11-20T11:26:24;93995.50;;;11.62;100.00
35989;BME280;22064;42.672;23.282;2022-11-20T11:28:58;93987.72;;;11.56;100.00
35989;BME280;22064;42.672;23.282;2022-11-20T11:33:50;94006.44;;;11.74;100.00
35989;BME280;22064;42.672;23.282;2022-11-20T11:36:23;93982.19;;;11.73;100.00
35989;BME280;22064;42.672;23.282;2022-11-20T11:38:52;93979.31;;;11.80;100.00
35989;BME280;22064;42.672;23.282;2022-11-20T11:41:23;93976.72;;;11.90;100.00
35989;BME280;22064;42.672;23.282;2022-11-20T11:43:58;93993.66;;;11.83;100.00
35989;BME280;22064;42.672;23.282;2022-11-20T11:46:51;93972.00;;;11.92;100.00
35989;BME280;22064;42.672;23.282;2022-11-20T11:49:19;94006.94;;;12.01;100.00
35989;BME280;22064;42.672;23.282;2022-11-20T11:54:27;94004.22;;;12.37;100.00
35989;BME280;22064;42.672;23.282;2022-11-20T11:56:54;93981.19;;;12.39;100.00
35989;BME280;22064;42.672;23.282;2022-11-20T11:59:28;93973.13;;;12.41;100.00
35989;BME280;22064;42.672;23.282;2022-11-20T12:02:01;93980.66;;;12.47;100.00
35989;BME280;22064;42.672;23.282;2022-11-20T12:04:50;93993.09;;;12.66;100.00
35989;BME280;22064;42.672;23.282;2022-11-20T12:07:29;93980.72;;;12.82;100.00
35989;BME280;22064;42.672;23.282;2022-11-20T12:09:59;93999.31;;;12.75;100.00
35989;BME280;22064;42.672;23.282;2022-11-20T12:12:38;93949.34;;;12.87;100.00
35989;BME280;22064;42.672;23.282;2022-11-20T12:15:11;93988.09;;;12.75;100.00
35989;BME280;22064;42.672;23.282;2022-11-20T12:17:38;93972.41;;;12.75;100.00
35989;BME280;22064;42.672;23.282;2022-11-20T12:20:13;93974.28;;;12.69;100.00
35989;BME280;22064;42.672;23.282;2022-11-20T12:25:07;93990.69;;;12.75;100.00
35989;BME280;22064;42.672;23.282;2022-11-20T12:31:17;94002.47;;;12.72;100.00
35989;BME280;22064;42.672;23.282;2022-11-20T12:38:58;93940.00;;;12.76;100.00
35989;BME280;22064;42.672;23.282;2022-11-20T12:45:17;93918.53;;;12.84;100.00
35989;BME280;22064;42.672;23.282;2022-11-20T13:01:39;93960.50;;;13.61;100.00
35989;BME280;22064;42.672;23.282;2022-11-20T13:06:44;93958.63;;;13.03;100.00
35989;BME280;22064;42.672;23.282;2022-11-20T13:09:15;93938.69;;;12.78;100.00
35989;BME280;22064;42.672;23.282;2022-11-20T13:12:07;93929.72;;;12.50;100.00
35989;BME280;22064;42.672;23.282;2022-11-20T13:17:18;93977.03;;;12.38;100.00
35989;BME280;22064;42.672;23.282;2022-11-20T13:19:55;93954.38;;;12.29;100.00
35989;BME280;22064;42.672;23.282;2022-11-20T13:22:45;93971.84;;;12.33;100.00
35989;BME280;22064;42.672;23.282;2022-11-20T13:25:33;93969.72;;;12.40;100.00
35989;BME280;22064;42.672;23.282;2022-11-20T13:28:01;93964.75;;;12.39;100.00
35989;BME280;22064;42.672;23.282;2022-11-20T13:30:28;93953.06;;;12.31;100.00
35989;BME280;22064;42.672;23.282;2022-11-20T13:35:32;93953.59;;;12.28;100.00
35989;BME280;22064;42.672;23.282;2022-11-20T13:38:25;93956.16;;;12.33;100.00
35989;BME280;22064;42.672;23.282;2022-11-20T13:43:41;93982.97;;;12.54;100.00
35989;BME280;22064;42.672;23.282;2022-11-20T13:46:08;93962.53;;;12.61;100.00
35989;BME280;22064;42.672;23.282;2022-11-20T13:48:45;93996.72;;;12.70;100.00
35989;BME280;22064;42.672;23.282;2022-11-20T13:52:04;93994.25;;;12.89;100.00
35989;BME280;22064;42.672;23.282;2022-11-20T13:54:39;93992.63;;;12.98;100.00
35989;BME280;22064;42.672;23.282;2022-11-20T14:00:13;93996.28;;;12.97;100.00
35989;BME280;22064;42.672;23.282;2022-11-20T14:02:40;94006.22;;;13.00;100.00
35989;BME280;22064;42.672;23.282;2022-11-20T14:05:24;93999.44;;;12.99;100.00
35989;BME280;22064;42.672;23.282;2022-11-20T14:07:51;94000.47;;;12.98;100.00
35989;BME280;22064;42.672;23.282;2022-11-20T14:10:29;93993.91;;;13.01;100.00
35989;BME280;22064;42.672;23.282;2022-11-20T14:12:55;93998.56;;;13.09;100.00
35989;BME280;22064;42.672;23.282;2022-11-20T14:15:29;93989.16;;;12.68;100.00
35989;BME280;22064;42.672;23.282;2022-11-20T14:17:55;93999.69;;;12.48;100.00
35989;BME280;22064;42.672;23.282;2022-11-20T14:20:27;93993.53;;;12.23;100.00
35989;BME280;22064;42.672;23.282;2022-11-20T14:22:54;93995.91;;;12.20;100.00